createdAt,value
2023-04-18T17:16:01.052Z,8.45
2023-04-18T17:19:02.608Z,6.72
2023-04-18T17:22:04.032Z,7.32
2023-04-18T17:25:06.051Z,6.47
2023-04-18T17:28:07.469Z,8.32
2023-04-18T17:31:08.932Z,8.68
2023-04-18T17:34:10.402Z,7.75
2023-04-18T17:37:11.896Z,7.75
2023-04-18T17:40:13.725Z,7.43
2023-04-18T17:43:15.185Z,7.00
2023-04-18T17:46:16.711Z,6.68
2023-04-18T17:49:18.382Z,6.75
2023-04-18T17:52:21.255Z,6.75
2023-04-18T17:55:22.925Z,6.78
2023-04-18T17:58:26.043Z,6.40
2023-04-18T18:01:30.194Z,6.57
2023-04-18T18:04:31.943Z,6.57
2023-04-18T18:07:37.150Z,6.55
2023-04-18T18:10:39.349Z,6.88
2023-04-18T18:13:40.840Z,5.97
2023-04-18T18:16:43.740Z,6.07
2023-04-18T18:19:45.292Z,6.10
2023-04-18T18:22:47.198Z,5.53
2023-04-18T18:25:50.182Z,5.43
2023-04-18T18:28:51.877Z,5.45
2023-04-18T18:31:53.385Z,5.53
2023-04-18T18:34:55.212Z,5.88
2023-04-18T18:37:56.753Z,6.15
2023-04-18T18:40:59.330Z,5.32
2023-04-18T18:44:02.238Z,5.30
2023-04-18T18:47:03.728Z,5.57
2023-04-18T18:50:05.481Z,5.60
2023-04-18T18:53:07.003Z,5.60
2023-04-18T18:56:08.773Z,5.20
2023-04-18T18:59:10.333Z,5.90
2023-04-18T19:02:12.025Z,4.90
2023-04-18T19:05:13.826Z,5.65
2023-04-18T19:08:15.448Z,5.40
2023-04-18T19:11:18.189Z,5.13
2023-04-18T19:14:19.735Z,5.32
2023-04-18T19:17:24.518Z,5.30
2023-04-18T19:20:27.527Z,4.75
2023-04-18T19:23:31.124Z,5.38
2023-04-18T19:26:32.646Z,5.18
2023-04-18T19:29:36.180Z,5.32
2023-04-18T19:32:37.903Z,4.93
2023-04-18T19:35:39.528Z,4.78
2023-04-18T19:38:41.468Z,5.50
2023-04-18T19:41:42.943Z,5.15
2023-04-18T19:44:44.456Z,5.05
2023-04-18T19:47:47.597Z,4.82
2023-04-18T19:50:49.597Z,4.82
2023-04-18T19:53:51.107Z,4.93
2023-04-18T19:56:52.689Z,4.65
2023-04-18T19:59:54.516Z,4.45
2023-04-18T20:02:58.351Z,4.65
2023-04-18T20:06:05.335Z,5.20
2023-04-18T20:09:08.513Z,4.65
2023-04-18T20:12:10.065Z,5.28
2023-04-18T20:15:11.879Z,4.45
2023-04-18T20:18:13.372Z,4.85
2023-04-18T20:21:15.510Z,4.68
2023-04-18T20:24:17.046Z,4.60
2023-04-18T20:27:22.016Z,5.20
2023-04-18T20:30:23.684Z,5.00
2023-04-18T20:33:25.307Z,4.47
2023-04-18T20:36:26.765Z,4.80
2023-04-18T20:39:28.297Z,4.43
2023-04-18T20:42:29.795Z,4.30
2023-04-18T20:45:34.554Z,4.88
2023-04-18T20:48:35.996Z,4.80
2023-04-18T20:51:38.286Z,4.35
2023-04-18T20:54:41.054Z,4.50
2023-04-18T20:57:43.115Z,4.60
2023-04-18T21:00:44.852Z,4.60
2023-04-18T21:03:46.478Z,4.03
2023-04-18T21:06:48.140Z,4.07
2023-04-18T21:09:49.650Z,4.45
2023-04-18T21:12:51.184Z,4.30
2023-04-18T21:15:52.761Z,4.10
2023-04-18T21:18:55.020Z,4.40
2023-04-18T21:21:56.472Z,4.18
2023-04-18T21:24:57.912Z,4.78
2023-04-18T21:28:00.072Z,4.03
2023-04-18T21:31:01.586Z,4.13
2023-04-18T21:34:04.761Z,3.88
2023-04-18T21:37:06.284Z,4.20
2023-04-18T21:40:08.408Z,4.05
2023-04-18T21:43:09.921Z,3.95
2023-04-18T21:46:11.768Z,3.47
2023-04-18T21:49:13.431Z,3.60
2023-04-18T21:52:14.893Z,3.83
2023-04-18T21:55:17.454Z,3.72
2023-04-18T21:58:18.925Z,3.80
2023-04-18T22:01:20.445Z,3.78
2023-04-18T22:04:25.972Z,3.97
2023-04-18T22:07:29.437Z,4.13
2023-04-18T22:10:31.006Z,3.88
2023-04-18T22:13:35.551Z,3.55
2023-04-18T22:16:38.256Z,3.40
2023-04-18T22:19:41.475Z,3.80
2023-04-18T22:22:43.417Z,3.25
2023-04-18T22:25:45.096Z,3.65
2023-04-18T22:28:46.972Z,3.67
2023-04-18T22:31:48.461Z,3.70
2023-04-18T22:34:49.944Z,3.60
2023-04-18T22:37:51.490Z,3.78
2023-04-18T22:40:53.014Z,3.50
2023-04-18T22:43:54.496Z,3.53
2023-04-18T22:46:56.014Z,3.50
2023-04-18T22:49:57.533Z,3.63
2023-04-18T22:52:59.048Z,3.63
2023-04-18T22:56:00.585Z,3.70
2023-04-18T22:59:02.048Z,3.65
2023-04-18T23:02:03.647Z,3.58
2023-04-18T23:05:07.294Z,3.30
2023-04-18T23:08:08.837Z,3.28
2023-04-18T23:11:11.104Z,3.70
2023-04-18T23:14:12.818Z,3.50
2023-04-18T23:17:14.375Z,3.58
2023-04-18T23:20:16.306Z,3.42
2023-04-18T23:23:17.816Z,3.63
2023-04-18T23:26:19.391Z,3.25
2023-04-18T23:29:20.974Z,3.28
2023-04-18T23:32:22.706Z,3.83
2023-04-18T23:35:24.460Z,3.28
2023-04-18T23:38:26.636Z,3.20
2023-04-18T23:41:28.157Z,3.60
2023-04-18T23:44:29.662Z,3.33
2023-04-18T23:47:31.356Z,3.45
2023-04-18T23:50:32.873Z,3.22
2023-04-18T23:53:34.327Z,3.20
2023-04-18T23:56:36.004Z,3.53
2023-04-18T23:59:37.474Z,3.50
